Etusivu
METAR-TAF:

METAR-TAF

Lentoasemat :

Sonora Municipal Airport

Sonora, Texas, Yhdysvallat

Leveyspiiri: 30-35-08N, Pituuspiiri: 100-38-54W, korkeus merenpinnasta: 652 m

Tämänhetkinen sää

Tämä raportti tehtiin 34 minuuttia sitten, kello 22.35 UTC
Tuuli 4 kn eri suunnista puuskistuen 10 kn:hen
Lämpötila
Ilmanpaine 1017 hPa
Näkyvyys: 16.1 km
selkeää

METAR: KSOA 172235Z AUTO VRB04G10KT 10SM CLR A3003 RMK AO2

Aika: 18:09 (23:09 UTC)

Sääennuste

Tämä raportti tehtiin 5 tuntia ja 49 minuuttia sitten, kello 17.20 UTC
Ennuste voimassa 17. päivästä klo 18 UTC - 18. päivään klo 18 UTC
Tuuli 5 kn eri suunnista
Näkyvyys: 10 km
Hajanaisia pilviä 23000 ft:n korkeudessa
From 18. päivästä klo 1000 UTC
Tuuli 3 kn eri suunnista
Näkyvyys: 10 km
Muutamia pilviä 23000 ft:n korkeudessa

TAF: KSOA 171720Z 1718/1818 VRB05KT P6SM SCT230 FM181000 VRB03KT P6SM FEW230

Säähavainnot ja -ennusteet yli 4000 lentoasemalta (METAR- ja TAF-raportit).

Käytössä olevat sääasemat on merkitty karttaan keltaisilla ja punaisilla pisteillä.

Aseta hiiri pisteen päälle nähdäksesi sääaseman nimen.

Klikkaa sitten nähdäksesi säähavainnot ja -ennusteet.

Kartan vaihtaminen: klikkaa mustalla rastilla varustettuja vihreitä pisteitä, niin voit zoomata sisään; viivalla varustettua vihreää pistettä, niin voit zoomata ulos tai vihreitä nuolia, niin pääset viereisille kartoille.


METAR-TAF: